createdAt,value
2023-01-03T00:00:21.853Z,-39.76
2023-01-03T00:01:21.789Z,-39.76
2023-01-03T00:02:21.820Z,-39.76
2023-01-03T00:03:21.731Z,-39.76
2023-01-03T00:04:21.853Z,-39.76
2023-01-03T00:05:28.221Z,-39.76
2023-01-03T00:06:21.740Z,-39.76
2023-01-03T00:07:21.699Z,-39.76
2023-01-03T00:08:21.705Z,-39.76
2023-01-03T00:09:21.734Z,-39.76
2023-01-03T00:10:21.683Z,-39.76
2023-01-03T00:11:21.671Z,-39.76
2023-01-03T00:12:25.560Z,-39.76
2023-01-03T00:13:21.645Z,-39.76
2023-01-03T00:14:21.645Z,-39.76
2023-01-03T00:15:21.612Z,-39.76
2023-01-03T00:16:21.662Z,-39.76
2023-01-03T00:17:21.633Z,-39.76
2023-01-03T00:18:21.579Z,-39.76
2023-01-03T00:19:21.579Z,-39.76
2023-01-03T00:20:21.574Z,-39.76
2023-01-03T00:21:21.572Z,-39.76
2023-01-03T00:22:21.547Z,-39.76
2023-01-03T00:23:21.537Z,-39.76
2023-01-03T00:24:21.520Z,-39.76
2023-01-03T00:25:21.502Z,-39.76
2023-01-03T00:26:21.541Z,-39.76
2023-01-03T00:27:21.486Z,-39.76
2023-01-03T00:28:21.489Z,-39.76
2023-01-03T00:29:21.467Z,-39.76
2023-01-03T00:30:21.458Z,-39.76
2023-01-03T00:31:21.484Z,-39.76
2023-01-03T00:32:21.461Z,-39.76
2023-01-03T00:33:21.422Z,-39.76
2023-01-03T00:34:21.431Z,-39.76
2023-01-03T00:35:21.404Z,-39.76
2023-01-03T00:36:21.427Z,-39.76
2023-01-03T00:37:21.406Z,-39.76
2023-01-03T00:38:21.375Z,-39.76
2023-01-03T00:39:21.361Z,-39.76
2023-01-03T00:40:21.349Z,-39.76
2023-01-03T00:41:21.362Z,-39.76
2023-01-03T00:42:21.330Z,-39.76
2023-01-03T00:43:21.320Z,-39.76
2023-01-03T00:44:21.305Z,-39.76
2023-01-03T00:45:24.413Z,-39.76
2023-01-03T00:46:21.414Z,-39.76
2023-01-03T00:47:21.288Z,-39.76
2023-01-03T00:48:21.271Z,-39.76
2023-01-03T00:49:21.251Z,-39.76
2023-01-03T00:50:21.264Z,-39.76
2023-01-03T00:51:21.261Z,-39.76
2023-01-03T00:52:21.248Z,-39.76
2023-01-03T00:53:21.227Z,-39.76
2023-01-03T00:54:21.207Z,-39.76
2023-01-03T00:55:21.248Z,-39.76
2023-01-03T00:56:21.240Z,-39.76
2023-01-03T00:57:21.179Z,-39.76
2023-01-03T00:58:21.159Z,-39.76
2023-01-03T00:59:21.156Z,-39.76
2023-01-03T01:00:21.144Z,-39.76
2023-01-03T01:01:21.324Z,-39.76
2023-01-03T01:02:21.311Z,-39.76
2023-01-03T01:03:21.364Z,-39.76
2023-01-03T01:04:21.115Z,-39.76
2023-01-03T01:05:21.088Z,-39.76
2023-01-03T01:06:21.089Z,-39.76
2023-01-03T01:07:21.079Z,-39.76
2023-01-03T01:08:21.061Z,-39.76
2023-01-03T01:09:21.047Z,-39.76
2023-01-03T01:10:21.038Z,-39.76
2023-01-03T01:11:21.020Z,-39.76
2023-01-03T01:12:21.048Z,-39.76
2023-01-03T01:13:20.995Z,-39.76
2023-01-03T01:14:20.995Z,-39.76
2023-01-03T01:15:20.979Z,-39.76
2023-01-03T01:16:21.103Z,-39.76
2023-01-03T01:17:23.050Z,-39.76
2023-01-03T01:18:20.953Z,-39.76
2023-01-03T01:19:20.966Z,-39.76
2023-01-03T01:20:20.949Z,-39.76
2023-01-03T01:21:20.944Z,-39.76
2023-01-03T01:22:20.929Z,-39.76
2023-01-03T01:23:20.888Z,-39.76
2023-01-03T01:24:27.397Z,-39.76
2023-01-03T01:25:27.373Z,-39.76
2023-01-03T01:26:27.366Z,-39.76
2023-01-03T01:27:28.489Z,-39.76
2023-01-03T01:28:20.847Z,-39.76
2023-01-03T01:29:20.868Z,-39.76
2023-01-03T01:30:20.843Z,-39.76
2023-01-03T01:31:20.935Z,-39.76
2023-01-03T01:32:20.829Z,-39.76
2023-01-03T01:33:20.804Z,-39.76
2023-01-03T01:34:20.786Z,-39.76
2023-01-03T01:35:20.785Z,-39.76
2023-01-03T01:36:20.764Z,-39.76
2023-01-03T01:37:20.771Z,-39.76
2023-01-03T01:38:20.751Z,-39.76
2023-01-03T01:39:20.751Z,-39.76
2023-01-03T01:40:20.723Z,-39.76
2023-01-03T01:41:20.712Z,-39.76
2023-01-03T01:42:22.310Z,-39.76
2023-01-03T01:43:20.689Z,-39.76
2023-01-03T01:44:20.699Z,-39.76
2023-01-03T01:45:20.668Z,-39.76
2023-01-03T01:46:20.740Z,-39.76
2023-01-03T01:47:20.663Z,-39.76
2023-01-03T01:48:20.637Z,-39.76
2023-01-03T01:49:20.632Z,-39.76
2023-01-03T01:50:20.618Z,-39.76
2023-01-03T01:51:20.633Z,-39.76
2023-01-03T01:52:20.624Z,-39.76
2023-01-03T01:53:20.579Z,-39.76
2023-01-03T01:54:20.572Z,-39.76
2023-01-03T01:55:20.585Z,-39.76
2023-01-03T01:56:20.550Z,-39.76
2023-01-03T01:57:20.573Z,-39.76
2023-01-03T01:58:20.537Z,-39.76
2023-01-03T01:59:20.517Z,-39.76
2023-01-03T02:00:20.539Z,-39.76
2023-01-03T02:01:20.631Z,-39.76
2023-01-03T02:02:20.732Z,-39.76
2023-01-03T02:03:20.642Z,-39.76
2023-01-03T02:04:20.495Z,-39.76
2023-01-03T02:05:20.470Z,-39.76
2023-01-03T02:06:20.460Z,-39.76
2023-01-03T02:07:20.438Z,-39.76
2023-01-03T02:08:20.471Z,-39.76
2023-01-03T02:09:20.405Z,-39.76
2023-01-03T02:10:20.407Z,-39.76
2023-01-03T02:11:20.390Z,-39.76
2023-01-03T02:12:20.388Z,-39.76
2023-01-03T02:13:20.414Z,-39.76
2023-01-03T02:14:20.365Z,-39.76
2023-01-03T02:15:20.354Z,-39.76
2023-01-03T02:16:20.428Z,-39.76
2023-01-03T02:17:20.328Z,-39.76
2023-01-03T02:18:20.346Z,-39.76
2023-01-03T02:19:20.309Z,-39.76
2023-01-03T02:20:20.310Z,-39.76
2023-01-03T02:21:20.520Z,-39.76
2023-01-03T02:22:20.274Z,-39.76
2023-01-03T02:23:20.296Z,-39.76
2023-01-03T02:24:20.250Z,-39.76
2023-01-03T02:25:20.247Z,-39.76
2023-01-03T02:26:20.247Z,-39.76
2023-01-03T02:27:20.237Z,-39.76
2023-01-03T02:28:20.242Z,-39.76
2023-01-03T02:29:20.218Z,-39.76
2023-01-03T02:30:20.188Z,-39.76
2023-01-03T02:31:20.261Z,-39.76
2023-01-03T02:32:20.172Z,-39.76
2023-01-03T02:33:20.198Z,-39.76
2023-01-03T02:34:20.152Z,-39.76
2023-01-03T02:35:20.145Z,-39.76
2023-01-03T02:36:20.134Z,-39.76
2023-01-03T02:37:20.122Z,-39.76
2023-01-03T02:38:20.128Z,-39.76
2023-01-03T02:39:23.680Z,-39.76
2023-01-03T02:40:20.093Z,-39.76
2023-01-03T02:41:20.077Z,-39.76
2023-01-03T02:42:20.071Z,-39.76
2023-01-03T02:43:20.079Z,-39.76
2023-01-03T02:44:20.046Z,-39.76
2023-01-03T02:45:20.051Z,-39.76
2023-01-03T02:46:20.043Z,-39.76
2023-01-03T02:47:20.015Z,-39.76
2023-01-03T02:48:20.038Z,-39.76
2023-01-03T02:49:19.997Z,-39.76
2023-01-03T02:50:19.980Z,-39.76
2023-01-03T02:51:19.994Z,-39.76
2023-01-03T02:52:19.967Z,-39.76
2023-01-03T02:53:19.982Z,-39.76
2023-01-03T02:54:19.946Z,-39.76
2023-01-03T02:55:19.945Z,-39.76
2023-01-03T02:56:19.924Z,-39.76
2023-01-03T02:57:19.921Z,-39.76
2023-01-03T02:58:19.919Z,-39.76
2023-01-03T02:59:19.918Z,-39.76
2023-01-03T03:00:19.908Z,-39.76
2023-01-03T03:01:20.010Z,-39.76
2023-01-03T03:02:20.015Z,-39.76
2023-01-03T03:03:20.051Z,-39.76
2023-01-03T03:04:19.865Z,-39.76
2023-01-03T03:05:19.844Z,-39.76
2023-01-03T03:06:19.817Z,-39.76
2023-01-03T03:07:19.822Z,-39.76
2023-01-03T03:08:19.834Z,-39.76
2023-01-03T03:09:19.797Z,-39.76
2023-01-03T03:10:19.774Z,-39.76
2023-01-03T03:11:19.783Z,-39.76
2023-01-03T03:12:19.756Z,-39.76
2023-01-03T03:13:19.771Z,-39.76
2023-01-03T03:14:19.739Z,-39.76
2023-01-03T03:15:19.727Z,-39.76
2023-01-03T03:16:19.792Z,-39.76
2023-01-03T03:17:19.706Z,-39.76
2023-01-03T03:18:19.722Z,-39.76
2023-01-03T03:19:19.708Z,-39.76
2023-01-03T03:20:19.707Z,-39.76
2023-01-03T03:21:19.667Z,-39.76
2023-01-03T03:22:19.662Z,-39.76
2023-01-03T03:23:19.673Z,-39.76
2023-01-03T03:24:19.633Z,-39.76
2023-01-03T03:25:19.648Z,-39.76
2023-01-03T03:26:19.611Z,-39.76
2023-01-03T03:27:19.649Z,-39.76
2023-01-03T03:28:19.580Z,-39.76
2023-01-03T03:29:19.610Z,-39.76
2023-01-03T03:30:19.650Z,-39.76
2023-01-03T03:31:19.638Z,-39.76
2023-01-03T03:32:19.563Z,-39.76
2023-01-03T03:33:19.543Z,-39.76
2023-01-03T03:34:19.546Z,-39.76
2023-01-03T03:35:19.523Z,-39.76
2023-01-03T03:36:19.496Z,-39.76
2023-01-03T03:37:19.500Z,-39.76
2023-01-03T03:38:19.493Z,-39.76
2023-01-03T03:39:19.492Z,-39.76
2023-01-03T03:40:19.459Z,-39.76
2023-01-03T03:41:19.460Z,-39.76
2023-01-03T03:42:19.439Z,-39.76
2023-01-03T03:43:26.999Z,-39.76
2023-01-03T03:44:25.909Z,-39.76
2023-01-03T03:45:25.909Z,-39.76
2023-01-03T03:46:19.427Z,-39.76
2023-01-03T03:47:19.424Z,-39.76
2023-01-03T03:48:19.368Z,-39.76
2023-01-03T03:49:19.386Z,-39.76
2023-01-03T03:50:19.344Z,-39.76
2023-01-03T03:51:19.344Z,-39.76
2023-01-03T03:52:19.342Z,-39.76
2023-01-03T03:53:19.325Z,-39.76
2023-01-03T03:54:19.362Z,-39.76
2023-01-03T03:55:19.308Z,-39.76
2023-01-03T03:56:19.298Z,-39.76
2023-01-03T03:57:19.284Z,-39.76
2023-01-03T03:58:19.285Z,-39.76
2023-01-03T03:59:19.299Z,-39.76
2023-01-03T04:00:19.253Z,-39.76
2023-01-03T04:01:19.328Z,-39.76
2023-01-03T04:02:19.418Z,-39.76
2023-01-03T04:03:19.363Z,-39.76
2023-01-03T04:04:19.244Z,-39.76
2023-01-03T04:05:19.215Z,-39.76
2023-01-03T04:06:19.191Z,-39.76
2023-01-03T04:07:19.180Z,-39.76
2023-01-03T04:08:19.166Z,-39.76
2023-01-03T04:09:19.191Z,-39.76
2023-01-03T04:10:19.140Z,-39.76
2023-01-03T04:11:19.135Z,-39.76
2023-01-03T04:12:19.131Z,-39.76
2023-01-03T04:13:19.135Z,-39.76
2023-01-03T04:14:19.120Z,-39.76
2023-01-03T04:15:19.095Z,-39.76
2023-01-03T04:16:19.124Z,-39.76
2023-01-03T04:17:19.087Z,-39.76
2023-01-03T04:18:19.066Z,-39.76
2023-01-03T04:19:19.082Z,-39.76
2023-01-03T04:20:19.053Z,-39.76
2023-01-03T04:21:21.100Z,-39.76
2023-01-03T04:22:19.029Z,-39.76
2023-01-03T04:23:19.016Z,-39.76
2023-01-03T04:24:19.024Z,-39.76
2023-01-03T04:25:19.008Z,-39.76
2023-01-03T04:26:18.992Z,-39.76
2023-01-03T04:27:18.971Z,-39.76
2023-01-03T04:28:18.988Z,-39.76
2023-01-03T04:29:18.973Z,-39.76
2023-01-03T04:30:18.935Z,-39.76
2023-01-03T04:31:18.984Z,-39.76
2023-01-03T04:32:18.918Z,-39.76
2023-01-03T04:33:18.903Z,-39.76
2023-01-03T04:34:18.919Z,-39.76
2023-01-03T04:35:18.894Z,-39.76
2023-01-03T04:36:18.870Z,-39.76
2023-01-03T04:37:18.877Z,-39.76
2023-01-03T04:38:18.856Z,-39.76
2023-01-03T04:39:18.872Z,-39.76
2023-01-03T04:40:18.849Z,-39.76
2023-01-03T04:41:18.827Z,-39.76
2023-01-03T04:42:18.807Z,-39.76
2023-01-03T04:43:18.855Z,-39.76
2023-01-03T04:44:18.881Z,-39.76
2023-01-03T04:45:18.794Z,-39.76
2023-01-03T04:46:18.849Z,-39.76
2023-01-03T04:47:18.775Z,-39.76
2023-01-03T04:48:18.769Z,-39.76
2023-01-03T04:49:18.761Z,-39.76
2023-01-03T04:50:18.766Z,-39.76
2023-01-03T04:51:25.225Z,-39.76
2023-01-03T04:52:18.718Z,-39.76
2023-01-03T04:53:18.699Z,-39.76
2023-01-03T04:54:18.709Z,-39.76
2023-01-03T04:55:18.688Z,-39.76
2023-01-03T04:56:18.676Z,-39.76
2023-01-03T04:57:18.660Z,-39.76
2023-01-03T04:58:18.654Z,-39.76
2023-01-03T04:59:18.665Z,-39.76
2023-01-03T05:00:18.636Z,-39.76
2023-01-03T05:01:18.738Z,-39.76
2023-01-03T05:02:18.780Z,-39.76
2023-01-03T05:03:24.014Z,-39.76
2023-01-03T05:04:18.666Z,-39.76
2023-01-03T05:05:18.588Z,-39.76
2023-01-03T05:06:18.570Z,-39.76
2023-01-03T05:07:18.550Z,-39.76
2023-01-03T05:08:18.549Z,-39.76
2023-01-03T05:09:18.563Z,-39.76
2023-01-03T05:10:18.564Z,-39.76
2023-01-03T05:11:18.515Z,-39.76
2023-01-03T05:12:18.516Z,-39.76
2023-01-03T05:13:18.496Z,-39.76
2023-01-03T05:14:18.487Z,-39.76
2023-01-03T05:15:18.505Z,-39.76
2023-01-03T05:16:18.523Z,-39.76
2023-01-03T05:17:18.450Z,-39.76
2023-01-03T05:18:18.475Z,-39.76
2023-01-03T05:19:18.428Z,-39.76
2023-01-03T05:20:18.436Z,-39.76
2023-01-03T05:21:18.428Z,-39.76
2023-01-03T05:22:18.451Z,-39.76
2023-01-03T05:23:18.400Z,-39.76
2023-01-03T05:24:18.384Z,-39.76
2023-01-03T05:25:18.403Z,-39.76
2023-01-03T05:26:18.376Z,-39.76
2023-01-03T05:27:18.363Z,-39.76
2023-01-03T05:28:18.345Z,-39.76
2023-01-03T05:29:18.342Z,-39.76
2023-01-03T05:30:18.351Z,-39.76
2023-01-03T05:31:18.349Z,-39.76
2023-01-03T05:32:18.378Z,-39.76
2023-01-03T05:33:18.289Z,-39.76
2023-01-03T05:34:18.272Z,-39.76
2023-01-03T05:35:18.309Z,-39.76
2023-01-03T05:36:18.259Z,-39.76
2023-01-03T05:37:18.243Z,-39.76
2023-01-03T05:38:18.243Z,-39.76
2023-01-03T05:39:18.223Z,-39.76
2023-01-03T05:40:18.231Z,-39.76
2023-01-03T05:41:18.212Z,-39.76
2023-01-03T05:42:18.197Z,-39.76
2023-01-03T05:43:18.182Z,-39.76
2023-01-03T05:44:18.202Z,-39.76
2023-01-03T05:45:18.196Z,-39.76
2023-01-03T05:46:18.219Z,-39.76
2023-01-03T05:47:18.153Z,-39.76
2023-01-03T05:48:18.162Z,-39.76
2023-01-03T05:49:18.136Z,-39.76
2023-01-03T05:50:18.125Z,-39.76
2023-01-03T05:51:18.123Z,-39.76
2023-01-03T05:52:18.090Z,-39.76
2023-01-03T05:53:18.129Z,-39.76
2023-01-03T05:54:18.088Z,-39.76
2023-01-03T05:55:18.087Z,-39.76
2023-01-03T05:56:18.049Z,-39.76
2023-01-03T05:57:18.059Z,-39.76
2023-01-03T05:58:18.032Z,-39.76
2023-01-03T05:59:18.022Z,-39.76
2023-01-03T06:00:18.030Z,-39.76
2023-01-03T06:01:24.504Z,-39.76
2023-01-03T06:02:18.043Z,-39.76
2023-01-03T06:03:18.005Z,-39.76
2023-01-03T06:04:18.024Z,-39.76
2023-01-03T06:05:17.992Z,-39.76
2023-01-03T06:06:24.433Z,-39.76
2023-01-03T06:07:24.441Z,-39.76
2023-01-03T06:08:17.949Z,-39.76
2023-01-03T06:09:17.934Z,-39.76
2023-01-03T06:10:17.952Z,-39.76
2023-01-03T06:11:17.899Z,-39.76
2023-01-03T06:12:17.972Z,-39.76
2023-01-03T06:13:17.881Z,-39.76
2023-01-03T06:14:17.881Z,-39.76
2023-01-03T06:15:17.855Z,-39.76
2023-01-03T06:16:22.885Z,-39.76
2023-01-03T06:17:17.907Z,-39.76
2023-01-03T06:18:17.823Z,-39.76
2023-01-03T06:19:17.804Z,-39.76
2023-01-03T06:20:17.839Z,-39.76
2023-01-03T06:21:17.818Z,-39.76
2023-01-03T06:22:17.781Z,-39.76
2023-01-03T06:23:17.760Z,-39.76
2023-01-03T06:24:17.793Z,-39.76
2023-01-03T06:25:17.744Z,-39.76
2023-01-03T06:26:17.759Z,-39.76
2023-01-03T06:27:17.732Z,-39.76
2023-01-03T06:28:17.778Z,-39.76
2023-01-03T06:29:17.705Z,-39.76
2023-01-03T06:30:17.703Z,-39.76
2023-01-03T06:31:17.814Z,-39.76
2023-01-03T06:32:17.675Z,-39.76
2023-01-03T06:33:17.662Z,-39.76
2023-01-03T06:34:17.705Z,-39.76
2023-01-03T06:35:17.641Z,-39.76
2023-01-03T06:36:17.697Z,-39.76
2023-01-03T06:37:17.635Z,-39.76
2023-01-03T06:38:17.625Z,-39.76
2023-01-03T06:39:17.609Z,-39.76
2023-01-03T06:40:17.592Z,-39.76
2023-01-03T06:41:17.600Z,-39.76
2023-01-03T06:42:17.572Z,-39.76
2023-01-03T06:43:17.556Z,-39.76
2023-01-03T06:44:17.579Z,-39.76
2023-01-03T06:45:17.548Z,-39.76
2023-01-03T06:46:17.604Z,-39.76
2023-01-03T06:47:17.543Z,-39.76
2023-01-03T06:48:17.530Z,-39.76
2023-01-03T06:49:17.489Z,-39.76
2023-01-03T06:50:17.489Z,-39.76
2023-01-03T06:51:17.505Z,-39.76
2023-01-03T06:52:17.467Z,-39.76
2023-01-03T06:53:17.472Z,-39.76
2023-01-03T06:54:17.484Z,-39.76
2023-01-03T06:55:17.431Z,-39.76
2023-01-03T06:56:17.451Z,-39.76
2023-01-03T06:57:26.230Z,-39.76
2023-01-03T06:58:17.418Z,-39.76
2023-01-03T06:59:17.394Z,-39.76
2023-01-03T07:00:17.394Z,-39.76
2023-01-03T07:01:17.465Z,-39.76
2023-01-03T07:02:17.489Z,-39.76
2023-01-03T07:03:17.373Z,-39.76
2023-01-03T07:04:17.448Z,-39.76
2023-01-03T07:05:17.334Z,-39.76
2023-01-03T07:06:17.350Z,-39.76
2023-01-03T07:07:17.306Z,-39.76
2023-01-03T07:08:17.304Z,-39.76
2023-01-03T07:09:17.291Z,-39.76
2023-01-03T07:10:17.274Z,-39.76
2023-01-03T07:11:17.289Z,-39.76
2023-01-03T07:12:17.283Z,-39.76
2023-01-03T07:13:17.246Z,-39.76
2023-01-03T07:14:17.242Z,-39.76
2023-01-03T07:15:17.273Z,-39.76
2023-01-03T07:16:17.335Z,-39.76
2023-01-03T07:17:17.206Z,-39.76
2023-01-03T07:18:17.202Z,-39.76
2023-01-03T07:19:17.186Z,-39.76
2023-01-03T07:20:17.175Z,-39.76
2023-01-03T07:21:17.210Z,-39.76
2023-01-03T07:22:17.161Z,-39.76
2023-01-03T07:23:17.174Z,-39.76
2023-01-03T07:24:17.149Z,-39.76
2023-01-03T07:25:17.119Z,-39.76
2023-01-03T07:26:17.162Z,-39.76
2023-01-03T07:27:17.102Z,-39.76
2023-01-03T07:28:17.110Z,-39.76
2023-01-03T07:29:17.082Z,-39.76
2023-01-03T07:30:17.068Z,-39.76
2023-01-03T07:31:17.175Z,-39.76
2023-01-03T07:32:17.067Z,-39.76
2023-01-03T07:33:17.045Z,-39.76
2023-01-03T07:34:17.040Z,-39.76
2023-01-03T07:35:17.015Z,-39.76
2023-01-03T07:36:17.035Z,-39.76
2023-01-03T07:37:16.996Z,-39.76
2023-01-03T07:38:16.997Z,-39.76
2023-01-03T07:39:17.006Z,-39.76
2023-01-03T07:40:16.967Z,-39.76
2023-01-03T07:41:16.952Z,-39.76
2023-01-03T07:42:16.979Z,-39.76
2023-01-03T07:43:16.932Z,-39.76
2023-01-03T07:44:16.916Z,-39.76
2023-01-03T07:45:16.935Z,-39.76
2023-01-03T07:46:16.982Z,-39.76
2023-01-03T07:47:16.912Z,-39.76
2023-01-03T07:48:16.903Z,-39.76
2023-01-03T07:49:16.877Z,-39.76
2023-01-03T07:50:16.859Z,-39.76
2023-01-03T07:51:16.857Z,-39.76
2023-01-03T07:52:16.861Z,-39.76
2023-01-03T07:53:17.213Z,-39.76
2023-01-03T07:54:16.820Z,-39.76
2023-01-03T07:55:16.809Z,-39.76
2023-01-03T07:56:16.797Z,-39.76
2023-01-03T07:57:16.805Z,-39.76
2023-01-03T07:58:16.775Z,-39.76
2023-01-03T07:59:16.762Z,-39.76
2023-01-03T08:00:16.756Z,-39.76
2023-01-03T08:01:16.903Z,-39.76
2023-01-03T08:02:16.972Z,-39.76
2023-01-03T08:03:16.800Z,-39.76
2023-01-03T08:04:16.795Z,-39.76
2023-01-03T08:05:16.804Z,-39.76
2023-01-03T08:06:16.696Z,-39.76
2023-01-03T08:07:16.717Z,-39.76
2023-01-03T08:08:16.673Z,-39.76
2023-01-03T08:09:16.666Z,-39.76
2023-01-03T08:10:16.651Z,-39.76
2023-01-03T08:11:16.633Z,-39.76
2023-01-03T08:12:16.658Z,-39.76
2023-01-03T08:13:16.611Z,-39.76
2023-01-03T08:14:20.388Z,-39.76
2023-01-03T08:15:16.614Z,-39.76
2023-01-03T08:16:16.680Z,-39.76
2023-01-03T08:17:16.617Z,-39.76
2023-01-03T08:18:16.565Z,-39.76
2023-01-03T08:19:16.558Z,-39.76
2023-01-03T08:20:16.545Z,-39.76
2023-01-03T08:21:16.535Z,-39.76
2023-01-03T08:22:16.552Z,-39.76
2023-01-03T08:23:16.513Z,-39.76
2023-01-03T08:24:16.511Z,-39.76
2023-01-03T08:25:16.491Z,-39.76
2023-01-03T08:26:16.489Z,-39.76
2023-01-03T08:27:16.498Z,-39.76
2023-01-03T08:28:16.493Z,-39.76
2023-01-03T08:29:16.440Z,-39.76
2023-01-03T08:30:16.441Z,-39.76
2023-01-03T08:31:16.510Z,-39.76
2023-01-03T08:32:16.448Z,-39.76
2023-01-03T08:33:16.412Z,-39.76
2023-01-03T08:34:20.893Z,-39.76
2023-01-03T08:35:16.396Z,-39.76
2023-01-03T08:36:16.416Z,-39.76
2023-01-03T08:37:16.412Z,-39.76
2023-01-03T08:38:16.354Z,-39.76
2023-01-03T08:39:16.341Z,-39.76
2023-01-03T08:40:16.342Z,-39.76
2023-01-03T08:41:16.335Z,-39.76
2023-01-03T08:42:16.328Z,-39.76
2023-01-03T08:43:16.342Z,-39.76
2023-01-03T08:44:16.313Z,-39.76
2023-01-03T08:45:16.282Z,-39.76
2023-01-03T08:46:16.326Z,-39.76
2023-01-03T08:47:16.362Z,-39.76
2023-01-03T08:48:16.288Z,-39.76
2023-01-03T08:49:16.236Z,-39.76
2023-01-03T08:50:16.241Z,-39.76
2023-01-03T08:51:16.223Z,-39.76
2023-01-03T08:52:16.224Z,-39.76
2023-01-03T08:53:16.223Z,-39.76
2023-01-03T08:54:16.199Z,-39.76
2023-01-03T08:55:16.186Z,-39.76
2023-01-03T08:56:16.171Z,-39.76
2023-01-03T08:57:16.153Z,-39.76
2023-01-03T08:58:16.190Z,-39.76
2023-01-03T08:59:16.173Z,-39.76
2023-01-03T09:00:16.122Z,-39.76
2023-01-03T09:01:16.271Z,-39.76
2023-01-03T09:02:16.257Z,-39.76
2023-01-03T09:03:16.354Z,-39.76
2023-01-03T09:04:16.184Z,-39.76
2023-01-03T09:05:16.081Z,-39.76
2023-01-03T09:06:16.081Z,-39.76
2023-01-03T09:07:16.051Z,-39.76
2023-01-03T09:08:16.090Z,-39.76
2023-01-03T09:09:16.025Z,-39.76
2023-01-03T09:10:16.022Z,-39.76
2023-01-03T09:11:16.025Z,-39.76
2023-01-03T09:12:16.068Z,-39.76
2023-01-03T09:13:16.011Z,-39.76
2023-01-03T09:14:15.976Z,-39.76
2023-01-03T09:15:15.959Z,-39.76
2023-01-03T09:16:16.042Z,-39.76
2023-01-03T09:17:15.953Z,-39.76
2023-01-03T09:18:15.986Z,-39.76
2023-01-03T09:19:15.934Z,-39.76
2023-01-03T09:20:15.914Z,-39.76
2023-01-03T09:21:15.896Z,-39.76
2023-01-03T09:22:15.891Z,-39.76
2023-01-03T09:23:15.902Z,-39.76
2023-01-03T09:24:15.872Z,-39.76
2023-01-03T09:25:15.890Z,-39.76
2023-01-03T09:26:15.860Z,-39.76
2023-01-03T09:27:15.836Z,-39.76
2023-01-03T09:28:15.854Z,-39.76
2023-01-03T09:29:15.823Z,-39.76
2023-01-03T09:30:15.809Z,-39.76
2023-01-03T09:31:15.811Z,-39.76
2023-01-03T09:32:15.905Z,-39.76
2023-01-03T09:33:15.802Z,-39.76
2023-01-03T09:34:15.771Z,-39.76
2023-01-03T09:35:15.752Z,-39.76
2023-01-03T09:36:22.230Z,-39.76
2023-01-03T09:37:15.730Z,-39.76
2023-01-03T09:38:15.753Z,-39.76
2023-01-03T09:39:15.719Z,-39.76
2023-01-03T09:40:15.718Z,-39.76
2023-01-03T09:41:15.692Z,-39.76
2023-01-03T09:42:15.681Z,-39.76
2023-01-03T09:43:19.857Z,-39.76
2023-01-03T09:44:15.692Z,-39.76
2023-01-03T09:45:15.646Z,-39.76
2023-01-03T09:46:15.731Z,-39.76
2023-01-03T09:47:15.667Z,-39.76
2023-01-03T09:48:15.628Z,-39.76
2023-01-03T09:49:15.624Z,-39.76
2023-01-03T09:51:20.972Z,-39.76
2023-01-03T09:52:15.594Z,-39.76
2023-01-03T09:53:15.558Z,-39.76
2023-01-03T09:54:15.587Z,-39.76
2023-01-03T09:55:15.555Z,-39.76
2023-01-03T09:56:15.530Z,-39.76
2023-01-03T09:57:15.514Z,-39.76
2023-01-03T09:58:15.507Z,-39.76
2023-01-03T09:59:15.522Z,-39.76
2023-01-03T10:00:15.485Z,-39.76
2023-01-03T10:01:15.679Z,-39.76
2023-01-03T10:02:15.561Z,-39.76
2023-01-03T10:03:15.536Z,-39.76
2023-01-03T10:04:16.147Z,-39.76
2023-01-03T10:05:15.438Z,-39.76
2023-01-03T10:06:15.518Z,-39.76
2023-01-03T10:07:15.418Z,-39.76
2023-01-03T10:08:15.415Z,-39.76
2023-01-03T10:09:15.416Z,-39.76
2023-01-03T10:10:15.412Z,-39.76
2023-01-03T10:11:15.388Z,-39.76
2023-01-03T10:12:15.366Z,-39.76
2023-01-03T10:13:19.928Z,-39.76
2023-01-03T10:14:15.382Z,-39.76
2023-01-03T10:15:15.329Z,-39.76
2023-01-03T10:16:15.399Z,-39.76
2023-01-03T10:17:15.320Z,-39.76
2023-01-03T10:18:15.318Z,-39.76
2023-01-03T10:19:15.314Z,-39.76
2023-01-03T10:20:15.285Z,-39.76
2023-01-03T10:21:15.262Z,-39.76
2023-01-03T10:22:15.279Z,-39.76
2023-01-03T10:23:15.268Z,-39.76
2023-01-03T10:24:15.277Z,-39.76
2023-01-03T10:25:15.233Z,-39.76
2023-01-03T10:26:15.216Z,-39.76
2023-01-03T10:27:15.205Z,-39.76
2023-01-03T10:28:15.231Z,-39.76
2023-01-03T10:29:15.206Z,-39.76
2023-01-03T10:30:15.172Z,-39.76
2023-01-03T10:31:15.219Z,-39.76
2023-01-03T10:32:15.221Z,-39.76
2023-01-03T10:33:15.184Z,-39.76
2023-01-03T10:34:15.173Z,-39.76
2023-01-03T10:35:15.141Z,-39.76
2023-01-03T10:36:15.139Z,-39.76
2023-01-03T10:37:15.139Z,-39.76
2023-01-03T10:38:15.115Z,-39.76
2023-01-03T10:39:15.142Z,-39.76
2023-01-03T10:40:15.116Z,-39.76
2023-01-03T10:42:33.136Z,-39.76
2023-01-03T10:45:08.809Z,7.88
2023-01-03T10:46:08.603Z,7.88
2023-01-03T10:47:08.751Z,7.88
2023-01-03T10:48:08.420Z,7.91
2023-01-03T10:50:08.392Z,7.93
2023-01-03T10:51:08.337Z,7.94
2023-01-03T10:52:08.376Z,7.95
2023-01-03T10:53:08.318Z,7.93
2023-01-03T10:54:08.644Z,7.93
2023-01-03T10:55:16.834Z,7.91
2023-01-03T10:56:08.283Z,7.90
2023-01-03T10:57:15.812Z,7.90
2023-01-03T10:58:14.801Z,7.88
2023-01-03T10:59:14.752Z,7.87
2023-01-03T11:00:15.922Z,7.88
2023-01-03T11:01:15.798Z,7.93
2023-01-03T11:02:14.879Z,7.97
2023-01-03T11:03:14.951Z,7.98
2023-01-03T11:04:14.688Z,7.98
2023-01-03T11:05:15.956Z,8.00
2023-01-03T11:06:08.177Z,8.01
2023-01-03T11:07:08.199Z,7.98
2023-01-03T11:08:08.156Z,7.97
2023-01-03T11:09:08.186Z,7.98
2023-01-03T11:10:08.172Z,7.98
2023-01-03T11:11:08.121Z,8.00
2023-01-03T11:12:08.115Z,8.05
2023-01-03T11:13:08.097Z,8.12
2023-01-03T11:14:08.095Z,8.16
2023-01-03T11:15:08.095Z,8.19
2023-01-03T11:16:08.120Z,8.24
2023-01-03T11:17:08.128Z,8.28
2023-01-03T11:18:08.067Z,8.33
2023-01-03T11:19:08.042Z,8.37
2023-01-03T11:20:08.068Z,8.38
2023-01-03T11:21:08.030Z,8.38
2023-01-03T11:22:08.022Z,8.37
2023-01-03T11:23:08.030Z,8.36
2023-01-03T11:24:07.989Z,8.37
2023-01-03T11:25:08.034Z,8.41
2023-01-03T11:26:07.977Z,8.44
2023-01-03T11:27:08.047Z,8.46
2023-01-03T11:28:13.839Z,8.45
2023-01-03T11:29:07.946Z,8.42
2023-01-03T11:30:07.970Z,8.42
2023-01-03T11:31:07.912Z,8.45
2023-01-03T11:32:07.931Z,8.48
2023-01-03T11:33:07.901Z,8.51
2023-01-03T11:34:07.890Z,8.53
2023-01-03T11:35:24.772Z,8.58
2023-01-03T11:36:07.949Z,8.63
2023-01-03T11:37:07.848Z,8.64
2023-01-03T11:38:07.852Z,8.67
2023-01-03T11:39:14.487Z,8.71
2023-01-03T11:40:07.914Z,8.76
2023-01-03T11:41:07.846Z,8.76
2023-01-03T11:42:07.801Z,8.78
2023-01-03T11:43:07.787Z,8.81
2023-01-03T11:44:07.777Z,8.84
2023-01-03T11:45:07.764Z,8.82
2023-01-03T11:46:07.876Z,8.84
2023-01-03T11:47:07.771Z,8.81
2023-01-03T11:48:07.759Z,8.81
2023-01-03T11:49:07.728Z,8.82
2023-01-03T11:50:07.716Z,8.82
2023-01-03T11:51:07.721Z,8.84
2023-01-03T11:52:07.736Z,8.85
2023-01-03T11:53:07.688Z,8.88
2023-01-03T11:54:07.680Z,8.88
2023-01-03T11:55:07.652Z,8.89
2023-01-03T11:56:07.692Z,8.85
2023-01-03T11:57:07.730Z,8.84
2023-01-03T11:58:07.627Z,8.82
2023-01-03T11:59:07.635Z,8.76
2023-01-03T12:00:07.639Z,8.73
2023-01-03T12:01:07.686Z,8.71
2023-01-03T12:02:07.745Z,8.69
2023-01-03T12:03:07.685Z,8.67
2023-01-03T12:04:07.688Z,8.69
2023-01-03T12:05:07.592Z,8.69
2023-01-03T12:06:07.578Z,8.66
2023-01-03T12:07:45.956Z,8.63
2023-01-03T12:08:07.544Z,8.61
2023-01-03T12:09:07.681Z,8.63
2023-01-03T12:10:07.513Z,8.61
2023-01-03T12:13:29.442Z,8.53
2023-01-03T12:14:25.271Z,8.55
2023-01-03T12:15:25.282Z,8.60
2023-01-03T12:16:25.491Z,8.60
2023-01-03T12:17:25.221Z,8.60
2023-01-03T12:18:25.212Z,8.58
2023-01-03T12:19:25.328Z,8.58
2023-01-03T12:20:25.193Z,8.61
2023-01-03T12:21:25.194Z,8.60
2023-01-03T12:22:25.185Z,8.56
2023-01-03T12:23:25.198Z,8.58
2023-01-03T12:24:25.166Z,8.63
2023-01-03T12:25:25.154Z,8.66
2023-01-03T12:26:25.158Z,8.69
2023-01-03T12:27:25.147Z,8.71
2023-01-03T12:28:25.126Z,8.74
2023-01-03T12:29:25.105Z,8.78
2023-01-03T12:30:25.097Z,8.82
2023-01-03T12:31:31.033Z,8.85
2023-01-03T12:32:25.077Z,8.88
2023-01-03T12:33:25.087Z,8.89
2023-01-03T12:34:25.055Z,8.89
2023-01-03T12:35:25.069Z,8.92
2023-01-03T12:36:25.061Z,8.92
2023-01-03T12:37:25.009Z,8.95
2023-01-03T12:38:25.007Z,8.97
2023-01-03T12:39:32.523Z,8.97
2023-01-03T12:40:24.987Z,8.95
2023-01-03T12:41:25.095Z,8.99
2023-01-03T12:42:24.967Z,9.00